aviador You're here:

LFLS Decoded Metar

GRENOBLE in FRANCE
Report Time2017-10-17 11:00:00
UTC Time2017-10-17 11:25:22
Flight Rules vfr VFR
WindVRB at 02 kt
Visibility9999 m
Phenomena:N/A
Clouds:N/A
Expected CloudBase > 5,600 ft AGL from Temp-Dew spread
CeilingNone
Temp21°C (ISA +9)
Dew Point07°C (40% RH)
AAT19.6°C
QNH1024 hPa
Density Alt2,028 ft
Elevation1,266 ft
Report Wrong Elevation
Raw Report
LFLS 171100Z AUTO VRB02KT CAVOK 21/07 Q1024 NOSIG=

Extra information for LFLS:More info

Metar Taf Metar & Taf Last 4 Metars F.Rules Stats Wind Profile Meteogram Temp Stats Airport Information Weather charts Add Link Nearby VenuesMetar ALERT Operation Metar Decoded Social comments